createdAt,value
2022-11-20T00:01:31.846Z,26.60
2022-11-20T00:03:59.568Z,26.90
2022-11-20T00:06:28.239Z,22.90
2022-11-20T00:08:58.531Z,23.60
2022-11-20T00:11:28.057Z,23.60
2022-11-20T00:13:57.835Z,27.20
2022-11-20T00:16:27.416Z,22.90
2022-11-20T00:18:55.376Z,27.40
2022-11-20T00:21:25.975Z,38.80
2022-11-20T00:23:55.995Z,45.90
2022-11-20T00:26:25.566Z,41.10
2022-11-20T00:28:59.827Z,28.70
2022-11-20T00:31:28.196Z,23.30
2022-11-20T00:33:55.215Z,26.50
2022-11-20T00:36:26.153Z,26.70
2022-11-20T00:38:58.800Z,24.70
2022-11-20T00:41:28.448Z,24.90
2022-11-20T00:43:56.498Z,23.60
2022-11-20T00:46:26.577Z,27.60
2022-11-20T00:48:53.992Z,19.30
2022-11-20T00:51:24.429Z,32.90
2022-11-20T00:53:51.610Z,38.60
2022-11-20T00:56:20.040Z,25.80
2022-11-20T00:58:49.197Z,24.10
2022-11-20T01:01:22.118Z,23.90
2022-11-20T01:03:51.916Z,21.00
2022-11-20T01:06:31.091Z,22.20
2022-11-20T01:09:01.623Z,24.10
2022-11-20T01:11:32.229Z,21.20
2022-11-20T01:14:02.267Z,26.00
2022-11-20T01:16:36.946Z,37.40
2022-11-20T01:19:07.946Z,45.70
2022-11-20T01:21:38.653Z,29.20
2022-11-20T01:24:10.944Z,29.00
2022-11-20T01:26:40.934Z,23.60
2022-11-20T01:29:14.389Z,24.80
2022-11-20T01:31:42.106Z,27.30
2022-11-20T01:34:19.712Z,24.60
2022-11-20T01:36:47.204Z,20.70
2022-11-20T01:39:19.144Z,21.30
2022-11-20T01:42:09.829Z,27.20
2022-11-20T01:44:58.870Z,24.80
2022-11-20T01:47:46.046Z,32.60
2022-11-20T01:50:21.725Z,36.30
2022-11-20T01:53:15.525Z,28.00
2022-11-20T01:55:53.557Z,24.50
2022-11-20T01:58:30.609Z,23.60
2022-11-20T02:00:57.432Z,19.60
2022-11-20T02:03:25.068Z,21.70
2022-11-20T02:06:04.298Z,23.10
2022-11-20T02:08:32.808Z,21.70
2022-11-20T02:10:59.284Z,23.40
2022-11-20T02:13:44.034Z,22.50
2022-11-20T02:16:21.639Z,27.70
2022-11-20T02:18:49.063Z,36.80
2022-11-20T02:21:30.600Z,36.40
2022-11-20T02:24:14.301Z,25.30
2022-11-20T02:27:05.570Z,21.20
2022-11-20T02:29:45.049Z,24.10
2022-11-20T02:32:32.097Z,23.20
2022-11-20T02:35:06.338Z,24.90
2022-11-20T02:37:39.195Z,24.00
2022-11-20T02:40:06.807Z,25.00
2022-11-20T02:42:33.343Z,27.20
2022-11-20T02:44:59.854Z,22.10
2022-11-20T02:47:26.359Z,30.00
2022-11-20T02:49:52.900Z,40.80
2022-11-20T02:52:19.399Z,35.20
2022-11-20T02:54:45.935Z,17.40
2022-11-20T02:57:12.557Z,18.00
2022-11-20T02:59:39.050Z,22.90
2022-11-20T03:02:05.639Z,20.70
2022-11-20T03:04:32.326Z,19.90
2022-11-20T03:06:58.990Z,21.10
2022-11-20T03:09:25.646Z,24.10
2022-11-20T03:11:52.127Z,28.10
2022-11-20T03:14:18.651Z,39.30
2022-11-20T03:16:45.168Z,34.80
2022-11-20T03:19:12.717Z,49.10
2022-11-20T03:21:39.612Z,22.90
2022-11-20T03:24:07.072Z,20.20
2022-11-20T03:26:33.875Z,22.50
2022-11-20T03:29:04.602Z,26.80
2022-11-20T03:31:38.349Z,25.30
2022-11-20T03:34:04.965Z,26.30
2022-11-20T03:36:31.573Z,29.40
2022-11-20T03:38:58.123Z,22.30
2022-11-20T03:41:28.723Z,23.90
2022-11-20T03:43:59.597Z,25.60
2022-11-20T03:46:28.223Z,45.70
2022-11-20T03:48:55.667Z,41.90
2022-11-20T03:51:25.997Z,28.50
2022-11-20T03:53:56.128Z,25.30
2022-11-20T03:56:32.333Z,27.60
2022-11-20T03:58:59.078Z,25.30
2022-11-20T04:01:30.372Z,29.60
2022-11-20T04:03:57.799Z,28.90
2022-11-20T04:06:29.433Z,27.60
2022-11-20T04:08:58.462Z,26.00
2022-11-20T04:11:32.666Z,28.40
2022-11-20T04:14:04.119Z,32.40
2022-11-20T04:16:35.412Z,46.80
2022-11-20T04:19:07.317Z,39.10
2022-11-20T04:21:34.120Z,26.80
2022-11-20T04:24:00.749Z,25.80
2022-11-20T04:26:29.837Z,28.60
2022-11-20T04:28:57.816Z,29.60
2022-11-20T04:31:28.648Z,29.40
2022-11-20T04:33:55.572Z,31.30
2022-11-20T04:36:26.488Z,29.60
2022-11-20T04:38:57.336Z,37.00
2022-11-20T04:41:28.211Z,28.70
2022-11-20T04:44:03.548Z,30.90
2022-11-20T04:46:35.306Z,35.20
2022-11-20T04:49:01.976Z,41.80
2022-11-20T04:51:29.091Z,39.40
2022-11-20T04:53:56.105Z,31.80
2022-11-20T04:56:23.004Z,19.90
2022-11-20T04:58:49.673Z,24.00
2022-11-20T05:01:20.916Z,24.70
2022-11-20T05:03:48.293Z,26.70
2022-11-20T05:06:18.368Z,27.80
2022-11-20T05:08:45.053Z,28.30
2022-11-20T05:11:21.047Z,31.10
2022-11-20T05:13:49.221Z,37.60
2022-11-20T05:16:23.649Z,48.80
2022-11-20T05:18:53.546Z,51.70
2022-11-20T05:21:21.177Z,26.80
2022-11-20T05:23:48.246Z,24.60
2022-11-20T05:26:19.835Z,28.30
2022-11-20T05:28:47.511Z,28.40
2022-11-20T05:31:26.216Z,27.10
2022-11-20T05:33:55.568Z,27.80
2022-11-20T05:36:22.193Z,30.20
2022-11-20T05:38:50.888Z,28.20
2022-11-20T05:41:20.532Z,33.40
2022-11-20T05:43:50.048Z,56.70
2022-11-20T05:46:26.436Z,51.20
2022-11-20T05:48:54.731Z,33.90
2022-11-20T05:51:21.287Z,31.20
2022-11-20T05:53:48.959Z,30.30
2022-11-20T05:56:19.167Z,29.50
2022-11-20T05:58:46.389Z,29.90
2022-11-20T06:01:23.350Z,29.00
2022-11-20T06:03:51.031Z,33.30
2022-11-20T06:06:19.292Z,31.90
2022-11-20T06:08:46.349Z,31.50
2022-11-20T06:11:15.484Z,30.20
2022-11-20T06:13:43.140Z,35.30
2022-11-20T06:16:12.492Z,47.50
2022-11-20T06:18:39.535Z,52.10
2022-11-20T06:21:20.212Z,49.60
2022-11-20T06:23:48.462Z,20.20
2022-11-20T06:26:25.867Z,19.70
2022-11-20T06:28:54.200Z,16.00
2022-11-20T06:31:24.426Z,24.30
2022-11-20T06:33:52.727Z,26.20
2022-11-20T06:36:23.204Z,22.50
2022-11-20T06:38:50.076Z,31.80
2022-11-20T06:41:20.375Z,53.80
2022-11-20T06:43:48.140Z,63.50
2022-11-20T06:46:19.436Z,34.70
2022-11-20T06:48:47.440Z,30.10
2022-11-20T06:51:14.729Z,26.70
2022-11-20T06:53:41.277Z,27.50
2022-11-20T06:56:08.568Z,31.70
2022-11-20T06:58:36.742Z,31.20
2022-11-20T07:01:11.068Z,22.50
2022-11-20T07:03:38.668Z,28.50
2022-11-20T07:06:06.565Z,36.90
2022-11-20T07:08:34.431Z,50.50
2022-11-20T07:11:05.607Z,65.10
2022-11-20T07:13:33.447Z,52.20
2022-11-20T07:16:03.048Z,31.20
2022-11-20T07:18:30.130Z,30.60
2022-11-20T07:20:56.733Z,38.00
2022-11-20T07:23:23.291Z,32.20
2022-11-20T07:25:50.001Z,33.10
2022-11-20T07:28:16.578Z,32.80
2022-11-20T07:30:43.127Z,36.30
2022-11-20T07:33:09.618Z,50.60
2022-11-20T07:35:36.381Z,69.40
2022-11-20T07:38:03.117Z,67.80
2022-11-20T07:40:29.751Z,40.50
2022-11-20T07:42:56.698Z,34.50
2022-11-20T07:45:24.705Z,41.40
2022-11-20T07:47:51.809Z,35.40
2022-11-20T07:50:20.118Z,32.50
2022-11-20T07:52:47.683Z,42.00
2022-11-20T07:55:15.412Z,37.70
2022-11-20T07:57:42.305Z,40.20
2022-11-20T08:00:12.037Z,41.90
2022-11-20T08:02:40.520Z,58.40
2022-11-20T08:05:09.604Z,51.70
2022-11-20T08:07:42.906Z,38.70
2022-11-20T08:10:13.296Z,38.00
2022-11-20T08:13:10.746Z,34.40
2022-11-20T08:15:39.787Z,38.10
2022-11-20T08:21:03.765Z,35.20
2022-11-20T08:23:30.805Z,34.80
2022-11-20T08:25:57.414Z,32.30
2022-11-20T08:28:24.010Z,46.00
2022-11-20T08:30:50.616Z,51.80
2022-11-20T08:33:17.929Z,53.80
2022-11-20T08:35:44.808Z,36.00
2022-11-20T08:38:11.366Z,26.90
2022-11-20T08:40:37.971Z,36.20
2022-11-20T08:43:04.801Z,36.20
2022-11-20T08:45:34.500Z,36.40
2022-11-20T08:48:05.604Z,38.20
2022-11-20T08:50:33.323Z,35.20
2022-11-20T08:53:05.296Z,40.50
2022-11-20T08:55:31.950Z,57.20
2022-11-20T08:58:11.709Z,41.10
2022-11-20T09:00:38.659Z,41.70
2022-11-20T09:03:05.276Z,36.60
2022-11-20T09:05:31.864Z,42.70
2022-11-20T09:07:59.765Z,40.90
2022-11-20T09:10:28.094Z,33.60
2022-11-20T09:12:58.510Z,41.00
2022-11-20T09:15:26.356Z,47.20
2022-11-20T09:18:03.869Z,57.70
2022-11-20T09:20:33.793Z,59.50
2022-11-20T09:23:00.286Z,43.10
2022-11-20T09:25:27.435Z,40.10
2022-11-20T09:27:59.357Z,40.70
2022-11-20T09:30:27.354Z,44.70
2022-11-20T09:32:54.290Z,42.20
2022-11-20T09:35:20.838Z,36.20
2022-11-20T09:37:47.364Z,40.50
2022-11-20T09:40:29.859Z,43.40
2022-11-20T09:43:11.026Z,41.40
2022-11-20T09:46:07.255Z,46.90
2022-11-20T09:48:58.226Z,56.90
2022-11-20T09:52:05.305Z,70.10
2022-11-20T09:54:38.856Z,48.60
2022-11-20T09:57:22.255Z,48.30
2022-11-20T10:00:00.964Z,50.00
2022-11-20T10:02:40.798Z,44.70
2022-11-20T10:05:20.049Z,46.70
2022-11-20T10:08:17.825Z,56.30
2022-11-20T10:10:53.631Z,45.60
2022-11-20T10:13:50.938Z,47.90
2022-11-20T10:16:37.997Z,52.70
2022-11-20T10:19:40.023Z,44.80
2022-11-20T10:22:36.075Z,45.60
2022-11-20T10:25:16.236Z,42.80
2022-11-20T10:28:11.947Z,49.50
2022-11-20T10:30:43.462Z,43.90
2022-11-20T10:33:24.572Z,41.10
2022-11-20T10:36:27.884Z,41.20
2022-11-20T10:39:04.259Z,48.00
2022-11-20T10:41:39.665Z,68.90
2022-11-20T10:44:37.408Z,68.10
2022-11-20T10:47:10.757Z,45.30
2022-11-20T10:49:37.357Z,45.60
2022-11-20T10:52:33.062Z,45.40
2022-11-20T10:55:26.034Z,50.90
2022-11-20T10:58:10.583Z,50.70
2022-11-20T11:00:37.158Z,41.10
2022-11-20T11:03:15.140Z,37.70
2022-11-20T11:05:56.102Z,44.10
2022-11-20T11:08:28.584Z,36.10
2022-11-20T11:11:03.613Z,47.30
2022-11-20T11:13:31.386Z,69.70
2022-11-20T11:15:59.465Z,43.10
2022-11-20T11:18:33.877Z,46.50
2022-11-20T11:21:04.793Z,47.30
2022-11-20T11:23:39.501Z,44.80
2022-11-20T11:26:25.456Z,48.80
2022-11-20T11:29:04.044Z,47.30
2022-11-20T11:31:34.834Z,41.50
2022-11-20T11:34:17.552Z,46.50
2022-11-20T11:36:57.623Z,35.40
2022-11-20T11:39:26.053Z,56.00
2022-11-20T11:41:53.940Z,50.20
2022-11-20T11:44:44.369Z,41.70
2022-11-20T11:47:29.685Z,45.30
2022-11-20T11:50:11.697Z,48.10
2022-11-20T11:53:02.676Z,41.30
2022-11-20T11:55:43.543Z,47.60
2022-11-20T11:58:24.648Z,48.80
2022-11-20T12:01:28.603Z,58.50
2022-11-20T12:04:46.141Z,75.40
2022-11-20T12:07:45.968Z,73.40
2022-11-20T12:10:35.374Z,52.80
2022-11-20T12:13:30.680Z,55.00
2022-11-20T12:15:57.303Z,43.40
2022-11-20T12:18:23.879Z,57.90
2022-11-20T12:20:56.140Z,52.80
2022-11-20T12:23:40.002Z,54.80
2022-11-20T12:26:29.421Z,52.80
2022-11-20T12:29:18.490Z,45.50
2022-11-20T12:32:32.518Z,64.00
2022-11-20T12:35:17.366Z,47.80
2022-11-20T12:38:20.865Z,43.80
2022-11-20T12:41:44.330Z,41.70
2022-11-20T12:44:56.336Z,47.20
2022-11-20T12:47:50.550Z,51.90
2022-11-20T12:50:47.568Z,45.40
2022-11-20T12:53:48.482Z,46.50
2022-11-20T12:57:08.960Z,39.10
2022-11-20T13:00:06.468Z,51.00
2022-11-20T13:03:19.724Z,41.80
2022-11-20T13:06:19.862Z,43.00
2022-11-20T13:08:56.309Z,37.40
2022-11-20T13:11:40.623Z,45.50
2022-11-20T13:14:13.439Z,42.70
2022-11-20T13:17:08.618Z,52.80
2022-11-20T13:19:35.823Z,42.20
2022-11-20T13:22:02.819Z,43.10
2022-11-20T13:24:32.416Z,47.60
2022-11-20T13:27:14.228Z,40.30
2022-11-20T13:29:45.474Z,39.60
2022-11-20T13:32:21.718Z,47.00
2022-11-20T13:34:53.905Z,43.30
2022-11-20T13:37:39.682Z,35.70
2022-11-20T13:40:09.066Z,37.10
2022-11-20T13:42:44.933Z,35.90
2022-11-20T13:45:29.151Z,49.00
2022-11-20T13:47:59.587Z,48.50
2022-11-20T13:50:49.372Z,56.20
2022-11-20T13:53:52.705Z,33.30
2022-11-20T13:56:48.107Z,40.10
2022-11-20T13:59:50.278Z,43.40
2022-11-20T14:02:20.256Z,41.60
2022-11-20T14:04:51.735Z,19.60
2022-11-20T14:07:22.641Z,41.70
2022-11-20T14:09:56.763Z,50.80
2022-11-20T14:12:30.440Z,60.40
2022-11-20T14:14:57.549Z,59.40
2022-11-20T14:17:33.053Z,68.30
2022-11-20T14:20:07.325Z,43.20
2022-11-20T14:22:33.892Z,38.90
2022-11-20T14:25:23.549Z,40.50
2022-11-20T14:27:59.792Z,40.30
2022-11-20T14:30:44.356Z,48.40
2022-11-20T14:33:14.592Z,35.90
2022-11-20T14:35:47.681Z,50.90
2022-11-20T14:38:19.042Z,48.40
2022-11-20T14:40:46.280Z,47.60
2022-11-20T14:43:26.865Z,41.80
2022-11-20T14:46:02.701Z,41.00
2022-11-20T14:48:35.985Z,44.80
2022-11-20T14:51:02.609Z,42.50
2022-11-20T14:53:29.151Z,42.50
2022-11-20T14:56:02.183Z,55.70
2022-11-20T14:58:34.195Z,71.30
2022-11-20T15:01:08.086Z,52.70
2022-11-20T15:03:38.586Z,44.50
2022-11-20T15:06:08.376Z,46.30
2022-11-20T15:08:35.639Z,43.20
2022-11-20T15:11:03.068Z,44.40
2022-11-20T15:13:38.120Z,36.90
2022-11-20T15:16:19.213Z,44.60
2022-11-20T15:18:46.661Z,59.40
2022-11-20T15:21:19.622Z,54.90
2022-11-20T15:23:46.181Z,46.90
2022-11-20T15:26:20.245Z,39.00
2022-11-20T15:28:50.453Z,43.50
2022-11-20T15:31:22.129Z,39.10
2022-11-20T15:33:49.537Z,43.70
2022-11-20T15:36:16.204Z,45.40
2022-11-20T15:38:42.868Z,51.70
2022-11-20T15:41:45.218Z,66.00
2022-11-20T15:47:41.091Z,59.70
2022-11-20T15:50:18.277Z,64.00
2022-11-20T15:52:51.230Z,43.00
2022-11-20T15:55:17.735Z,45.30
2022-11-20T15:57:44.312Z,47.10
2022-11-20T16:00:12.035Z,57.00
2022-11-20T16:02:40.453Z,51.20
2022-11-20T16:05:12.769Z,53.20
2022-11-20T16:07:39.641Z,55.70
2022-11-20T16:10:06.703Z,75.20
2022-11-20T16:12:53.601Z,72.30
2022-11-20T16:15:39.079Z,68.70
2022-11-20T16:18:07.104Z,53.50
2022-11-20T16:20:33.860Z,49.90
2022-11-20T16:23:00.431Z,58.90
2022-11-20T16:25:28.384Z,49.40
2022-11-20T16:27:54.977Z,57.50
2022-11-20T16:30:21.724Z,58.00
2022-11-20T16:32:48.626Z,56.90
2022-11-20T16:35:15.373Z,76.80
2022-11-20T16:37:43.423Z,75.20
2022-11-20T16:40:11.607Z,56.60
2022-11-20T16:42:44.348Z,51.90
2022-11-20T16:45:11.341Z,52.00
2022-11-20T16:47:38.565Z,47.80
2022-11-20T16:50:11.147Z,46.70
2022-11-20T16:52:40.655Z,48.70
2022-11-20T16:55:08.212Z,57.40
2022-11-20T16:57:37.565Z,57.40
2022-11-20T17:00:07.625Z,61.00
2022-11-20T17:02:34.363Z,53.30
2022-11-20T17:05:03.092Z,42.40
2022-11-20T17:07:30.240Z,60.80
2022-11-20T17:09:57.678Z,51.30
2022-11-20T17:12:25.904Z,54.80
2022-11-20T17:14:53.163Z,61.10
2022-11-20T17:17:20.389Z,58.10
2022-11-20T17:19:47.406Z,55.80
2022-11-20T17:22:14.346Z,56.60
2022-11-20T17:24:40.997Z,78.60
2022-11-20T17:27:12.993Z,64.80
2022-11-20T17:29:42.448Z,75.30
2022-11-20T17:32:09.043Z,59.30
2022-11-20T17:34:38.514Z,59.30
2022-11-20T17:37:13.312Z,52.20
2022-11-20T17:39:44.355Z,52.50
2022-11-20T17:42:36.541Z,43.30
2022-11-20T17:45:05.972Z,52.70
2022-11-20T17:47:39.205Z,55.60
2022-11-20T17:50:06.765Z,79.30
2022-11-20T17:52:33.605Z,71.10
2022-11-20T17:55:00.110Z,80.60
2022-11-20T17:57:48.348Z,67.60
2022-11-20T18:00:16.734Z,61.40
2022-11-20T18:02:43.732Z,59.70
2022-11-20T18:05:10.619Z,63.20
2022-11-20T18:07:41.931Z,60.00
2022-11-20T18:10:09.487Z,62.40
2022-11-20T18:12:44.805Z,72.60
2022-11-20T18:15:11.352Z,78.50
2022-11-20T18:17:41.143Z,72.20
2022-11-20T18:23:01.400Z,55.60
2022-11-20T18:25:27.953Z,56.10
2022-11-20T18:27:57.240Z,61.80
2022-11-20T18:30:24.098Z,62.80
2022-11-20T18:32:50.875Z,61.60
2022-11-20T18:35:17.554Z,63.10
2022-11-20T18:37:44.076Z,74.60
2022-11-20T18:40:11.502Z,96.10
2022-11-20T18:42:56.982Z,94.40
2022-11-20T18:45:23.640Z,55.20
2022-11-20T18:47:50.151Z,66.10
2022-11-20T18:50:16.699Z,56.90
2022-11-20T18:52:47.466Z,61.10
2022-11-20T18:55:25.543Z,65.00
2022-11-20T18:57:53.730Z,57.30
2022-11-20T19:00:26.389Z,61.60
2022-11-20T19:02:55.978Z,103.10
2022-11-20T19:05:27.474Z,95.10
2022-11-20T19:08:00.204Z,53.10
2022-11-20T19:10:28.013Z,58.00
2022-11-20T19:12:58.864Z,51.90
2022-11-20T19:15:29.053Z,49.90
2022-11-20T19:18:04.459Z,46.60
2022-11-20T19:20:36.423Z,50.70
2022-11-20T19:23:03.159Z,57.90
2022-11-20T19:25:36.647Z,68.80
2022-11-20T19:28:07.889Z,69.50
2022-11-20T19:30:34.572Z,71.20
2022-11-20T19:33:01.468Z,64.20
2022-11-20T19:35:29.658Z,62.60
2022-11-20T19:38:05.497Z,64.50
2022-11-20T19:40:40.315Z,64.00
2022-11-20T19:43:06.797Z,62.40
2022-11-20T19:45:34.512Z,70.30
2022-11-20T19:48:08.112Z,67.20
2022-11-20T19:50:35.481Z,71.00
2022-11-20T19:53:03.851Z,73.70
2022-11-20T19:55:34.373Z,74.30
2022-11-20T19:58:02.814Z,73.50
2022-11-20T20:00:33.737Z,59.50
2022-11-20T20:03:00.520Z,60.40
2022-11-20T20:05:33.555Z,60.20
2022-11-20T20:08:17.235Z,63.00
2022-11-20T20:10:43.801Z,55.90
2022-11-20T20:13:19.353Z,56.80
2022-11-20T20:15:47.297Z,61.70
2022-11-20T20:18:13.904Z,60.30
2022-11-20T20:20:58.473Z,51.40
2022-11-20T20:23:34.400Z,62.50
2022-11-20T20:26:10.741Z,57.10
2022-11-20T20:28:38.993Z,47.30
2022-11-20T20:31:16.725Z,44.20
2022-11-20T20:33:45.450Z,43.20
2022-11-20T20:36:19.854Z,36.70
2022-11-20T20:39:02.409Z,46.40
2022-11-20T20:41:30.976Z,55.00
2022-11-20T20:44:20.589Z,56.60
2022-11-20T20:46:47.191Z,49.40
2022-11-20T20:49:13.753Z,64.70
2022-11-20T20:51:40.351Z,48.60
2022-11-20T20:54:07.050Z,49.30
2022-11-20T20:56:33.999Z,50.90
2022-11-20T20:59:01.236Z,38.30
2022-11-20T21:01:29.145Z,40.70
2022-11-20T21:03:57.616Z,47.70
2022-11-20T21:06:25.626Z,40.70
2022-11-20T21:08:54.077Z,49.20
2022-11-20T21:11:21.183Z,47.40
2022-11-20T21:13:48.826Z,37.70
2022-11-20T21:16:18.835Z,40.40
2022-11-20T21:18:49.184Z,37.60
2022-11-20T21:21:50.723Z,34.40
2022-11-20T21:24:39.995Z,35.20
2022-11-20T21:27:10.539Z,31.60
2022-11-20T21:29:46.131Z,37.50
2022-11-20T21:32:17.996Z,23.40
2022-11-20T21:34:50.628Z,32.20
2022-11-20T21:37:29.568Z,37.60
2022-11-20T21:39:56.189Z,34.20
2022-11-20T21:42:26.290Z,38.40
2022-11-20T21:44:54.267Z,28.00
2022-11-20T21:47:30.765Z,14.20
2022-11-20T21:49:57.792Z,27.10
2022-11-20T21:52:30.990Z,25.20
2022-11-20T21:54:57.691Z,20.20
2022-11-20T21:57:25.041Z,31.50
2022-11-20T21:59:51.884Z,21.00
2022-11-20T22:02:19.156Z,29.50
2022-11-20T22:04:48.630Z,32.00
2022-11-20T22:07:21.289Z,24.00
2022-11-20T22:09:48.204Z,19.40
2022-11-20T22:12:20.829Z,25.40
2022-11-20T22:14:47.506Z,20.30
2022-11-20T22:17:39.113Z,26.10
2022-11-20T22:20:20.875Z,26.80
2022-11-20T22:22:49.102Z,36.90
2022-11-20T22:25:16.697Z,29.90
2022-11-20T22:27:50.825Z,20.80
2022-11-20T22:30:24.044Z,24.90
2022-11-20T22:32:53.865Z,20.70
2022-11-20T22:35:39.195Z,20.90
2022-11-20T22:38:07.622Z,21.70
2022-11-20T22:40:46.740Z,26.40
2022-11-20T22:43:20.605Z,13.90
2022-11-20T22:45:49.115Z,26.20
2022-11-20T22:48:15.997Z,24.60
2022-11-20T22:50:42.585Z,22.80
2022-11-20T22:53:09.520Z,13.40
2022-11-20T22:55:36.110Z,26.30
2022-11-20T22:58:02.598Z,25.40
2022-11-20T23:00:29.906Z,26.20
2022-11-20T23:02:56.414Z,32.40
2022-11-20T23:05:22.901Z,30.60
2022-11-20T23:07:49.403Z,27.20
2022-11-20T23:10:16.420Z,27.00
2022-11-20T23:12:42.910Z,21.10
2022-11-20T23:15:10.253Z,25.00
2022-11-20T23:17:36.797Z,23.10
2022-11-20T23:20:03.748Z,19.50
2022-11-20T23:22:32.007Z,23.50
2022-11-20T23:24:58.517Z,28.40
2022-11-20T23:27:28.303Z,30.30
2022-11-20T23:29:56.069Z,21.30
2022-11-20T23:32:23.397Z,23.00
2022-11-20T23:34:49.869Z,19.70
2022-11-20T23:37:16.501Z,10.70
2022-11-20T23:39:43.044Z,14.90
2022-11-20T23:42:09.644Z,16.20
2022-11-20T23:44:36.255Z,23.00
2022-11-20T23:47:02.913Z,14.00
2022-11-20T23:49:29.478Z,27.40
2022-11-20T23:51:56.006Z,9.10
2022-11-20T23:54:22.554Z,24.00
2022-11-20T23:56:49.797Z,19.70
2022-11-20T23:59:16.464Z,14.30
